sensor_id;sensor_type;location;lat;lon;timestamp;temperature;humidity
18073;DHT22;9161;47.348;9.648;2024-01-06T00:04:36;4.50;99.90
18073;DHT22;9161;47.348;9.648;2024-01-06T00:09:38;4.50;99.90
18073;DHT22;9161;47.348;9.648;2024-01-06T00:14:44;4.40;99.90
18073;DHT22;9161;47.348;9.648;2024-01-06T00:19:46;4.40;99.90
18073;DHT22;9161;47.348;9.648;2024-01-06T00:24:52;4.40;99.90
18073;DHT22;9161;47.348;9.648;2024-01-06T00:29:56;4.30;99.90
18073;DHT22;9161;47.348;9.648;2024-01-06T00:34:58;4.20;99.90
18073;DHT22;9161;47.348;9.648;2024-01-06T00:40:00;4.20;99.90
18073;DHT22;9161;47.348;9.648;2024-01-06T00:45:05;4.20;99.90
18073;DHT22;9161;47.348;9.648;2024-01-06T00:50:08;4.20;99.90
18073;DHT22;9161;47.348;9.648;2024-01-06T00:55:11;4.10;99.90
18073;DHT22;9161;47.348;9.648;2024-01-06T01:00:15;4.10;99.90
18073;DHT22;9161;47.348;9.648;2024-01-06T01:05:17;4.10;99.90
18073;DHT22;9161;47.348;9.648;2024-01-06T01:10:20;4.10;99.90
18073;DHT22;9161;47.348;9.648;2024-01-06T01:15:24;4.00;99.90
18073;DHT22;9161;47.348;9.648;2024-01-06T01:20:26;4.10;99.90
18073;DHT22;9161;47.348;9.648;2024-01-06T01:25:28;4.00;99.90
18073;DHT22;9161;47.348;9.648;2024-01-06T01:30:32;4.00;99.90
18073;DHT22;9161;47.348;9.648;2024-01-06T01:35:35;4.00;99.90
18073;DHT22;9161;47.348;9.648;2024-01-06T01:40:37;4.00;99.90
18073;DHT22;9161;47.348;9.648;2024-01-06T01:45:41;4.00;99.90
18073;DHT22;9161;47.348;9.648;2024-01-06T01:50:45;3.90;99.90
18073;DHT22;9161;47.348;9.648;2024-01-06T01:55:48;3.90;99.90
18073;DHT22;9161;47.348;9.648;2024-01-06T02:00:53;4.00;99.90
18073;DHT22;9161;47.348;9.648;2024-01-06T02:05:55;3.90;99.90
18073;DHT22;9161;47.348;9.648;2024-01-06T02:10:57;4.00;99.90
18073;DHT22;9161;47.348;9.648;2024-01-06T02:16:01;4.00;99.90
18073;DHT22;9161;47.348;9.648;2024-01-06T02:21:04;4.00;99.90
18073;DHT22;9161;47.348;9.648;2024-01-06T02:26:11;3.90;99.90
18073;DHT22;9161;47.348;9.648;2024-01-06T02:31:14;4.00;99.90
18073;DHT22;9161;47.348;9.648;2024-01-06T02:36:16;3.90;99.90
18073;DHT22;9161;47.348;9.648;2024-01-06T02:41:20;3.90;99.90
18073;DHT22;9161;47.348;9.648;2024-01-06T02:46:22;3.90;99.90
18073;DHT22;9161;47.348;9.648;2024-01-06T02:51:26;3.90;99.90
18073;DHT22;9161;47.348;9.648;2024-01-06T02:56:30;3.80;99.90
18073;DHT22;9161;47.348;9.648;2024-01-06T03:01:32;3.80;99.90
18073;DHT22;9161;47.348;9.648;2024-01-06T03:06:35;3.90;99.90
18073;DHT22;9161;47.348;9.648;2024-01-06T03:11:38;3.90;99.90
18073;DHT22;9161;47.348;9.648;2024-01-06T03:16:40;3.90;99.90
18073;DHT22;9161;47.348;9.648;2024-01-06T03:21:42;3.80;99.90
18073;DHT22;9161;47.348;9.648;2024-01-06T03:26:46;3.80;99.90
18073;DHT22;9161;47.348;9.648;2024-01-06T03:31:48;3.90;99.90
18073;DHT22;9161;47.348;9.648;2024-01-06T03:36:50;3.90;99.90
18073;DHT22;9161;47.348;9.648;2024-01-06T03:41:54;3.90;99.90
18073;DHT22;9161;47.348;9.648;2024-01-06T03:46:56;3.90;99.90
18073;DHT22;9161;47.348;9.648;2024-01-06T03:51:58;3.90;99.90
18073;DHT22;9161;47.348;9.648;2024-01-06T03:57:02;3.90;99.90
18073;DHT22;9161;47.348;9.648;2024-01-06T04:02:04;3.90;99.90
18073;DHT22;9161;47.348;9.648;2024-01-06T04:07:06;3.80;99.90
18073;DHT22;9161;47.348;9.648;2024-01-06T04:12:09;3.80;99.90
18073;DHT22;9161;47.348;9.648;2024-01-06T04:17:12;3.80;99.90
18073;DHT22;9161;47.348;9.648;2024-01-06T04:22:14;3.90;99.90
18073;DHT22;9161;47.348;9.648;2024-01-06T04:27:18;3.90;99.90
18073;DHT22;9161;47.348;9.648;2024-01-06T04:32:20;3.90;99.90
18073;DHT22;9161;47.348;9.648;2024-01-06T04:37:22;3.80;99.90
18073;DHT22;9161;47.348;9.648;2024-01-06T04:42:26;3.80;99.90
18073;DHT22;9161;47.348;9.648;2024-01-06T04:47:28;3.90;99.90
18073;DHT22;9161;47.348;9.648;2024-01-06T04:52:31;3.90;99.90
18073;DHT22;9161;47.348;9.648;2024-01-06T04:57:34;4.00;99.90
18073;DHT22;9161;47.348;9.648;2024-01-06T05:02:36;4.00;99.90
18073;DHT22;9161;47.348;9.648;2024-01-06T05:07:39;4.00;99.90
18073;DHT22;9161;47.348;9.648;2024-01-06T05:12:42;4.00;99.90
18073;DHT22;9161;47.348;9.648;2024-01-06T05:17:44;4.00;99.90
18073;DHT22;9161;47.348;9.648;2024-01-06T05:22:47;3.90;99.90
18073;DHT22;9161;47.348;9.648;2024-01-06T05:27:50;4.00;99.90
18073;DHT22;9161;47.348;9.648;2024-01-06T05:32:52;3.90;99.90
18073;DHT22;9161;47.348;9.648;2024-01-06T05:37:55;4.00;99.90
18073;DHT22;9161;47.348;9.648;2024-01-06T05:42:59;4.00;99.90
18073;DHT22;9161;47.348;9.648;2024-01-06T05:48:01;4.00;99.90
18073;DHT22;9161;47.348;9.648;2024-01-06T05:53:04;4.00;99.90
18073;DHT22;9161;47.348;9.648;2024-01-06T05:58:07;4.00;99.90
18073;DHT22;9161;47.348;9.648;2024-01-06T06:03:09;4.00;99.90
18073;DHT22;9161;47.348;9.648;2024-01-06T06:08:11;4.00;99.90
18073;DHT22;9161;47.348;9.648;2024-01-06T06:13:15;4.00;99.90
18073;DHT22;9161;47.348;9.648;2024-01-06T06:18:17;4.00;99.90
18073;DHT22;9161;47.348;9.648;2024-01-06T06:23:19;3.90;99.90
18073;DHT22;9161;47.348;9.648;2024-01-06T06:28:22;3.90;99.90
18073;DHT22;9161;47.348;9.648;2024-01-06T06:33:24;3.90;99.90
18073;DHT22;9161;47.348;9.648;2024-01-06T06:38:26;3.90;99.90
18073;DHT22;9161;47.348;9.648;2024-01-06T06:43:30;3.90;99.90
18073;DHT22;9161;47.348;9.648;2024-01-06T06:48:32;3.80;99.90
18073;DHT22;9161;47.348;9.648;2024-01-06T06:53:36;3.80;99.90
18073;DHT22;9161;47.348;9.648;2024-01-06T06:58:39;3.70;99.90
18073;DHT22;9161;47.348;9.648;2024-01-06T07:03:41;3.70;99.90
18073;DHT22;9161;47.348;9.648;2024-01-06T07:08:44;3.60;99.90
18073;DHT22;9161;47.348;9.648;2024-01-06T07:13:47;3.60;99.90
18073;DHT22;9161;47.348;9.648;2024-01-06T07:18:49;3.60;99.90
18073;DHT22;9161;47.348;9.648;2024-01-06T07:23:51;3.60;99.90
18073;DHT22;9161;47.348;9.648;2024-01-06T07:28:54;3.60;99.90
18073;DHT22;9161;47.348;9.648;2024-01-06T07:33:56;3.60;99.90
18073;DHT22;9161;47.348;9.648;2024-01-06T07:38:59;3.60;99.90
18073;DHT22;9161;47.348;9.648;2024-01-06T07:44:02;3.60;99.90
18073;DHT22;9161;47.348;9.648;2024-01-06T07:49:07;3.60;99.90
18073;DHT22;9161;47.348;9.648;2024-01-06T07:54:10;3.60;99.90
18073;DHT22;9161;47.348;9.648;2024-01-06T07:59:13;3.60;99.90
18073;DHT22;9161;47.348;9.648;2024-01-06T08:04:15;3.60;99.90
18073;DHT22;9161;47.348;9.648;2024-01-06T08:09:17;3.60;99.90
18073;DHT22;9161;47.348;9.648;2024-01-06T08:14:21;3.60;99.90
18073;DHT22;9161;47.348;9.648;2024-01-06T08:19:23;3.60;99.90
18073;DHT22;9161;47.348;9.648;2024-01-06T08:24:26;3.60;99.90
18073;DHT22;9161;47.348;9.648;2024-01-06T08:29:30;3.70;99.90
18073;DHT22;9161;47.348;9.648;2024-01-06T08:34:32;3.70;99.90
18073;DHT22;9161;47.348;9.648;2024-01-06T08:39:34;3.80;99.90
18073;DHT22;9161;47.348;9.648;2024-01-06T08:44:38;3.80;99.90
18073;DHT22;9161;47.348;9.648;2024-01-06T08:49:41;3.80;99.90
18073;DHT22;9161;47.348;9.648;2024-01-06T08:54:43;3.80;99.90
18073;DHT22;9161;47.348;9.648;2024-01-06T08:59:46;3.80;99.90
18073;DHT22;9161;47.348;9.648;2024-01-06T09:04:49;4.00;99.90
18073;DHT22;9161;47.348;9.648;2024-01-06T09:09:50;4.10;99.90
18073;DHT22;9161;47.348;9.648;2024-01-06T09:14:54;4.30;99.90
18073;DHT22;9161;47.348;9.648;2024-01-06T09:19:56;4.30;99.90
18073;DHT22;9161;47.348;9.648;2024-01-06T09:25:02;4.30;99.90
18073;DHT22;9161;47.348;9.648;2024-01-06T09:30:07;4.50;99.90
18073;DHT22;9161;47.348;9.648;2024-01-06T09:35:11;4.50;99.90
18073;DHT22;9161;47.348;9.648;2024-01-06T09:40:13;4.50;99.90
18073;DHT22;9161;47.348;9.648;2024-01-06T09:45:17;4.60;99.90
18073;DHT22;9161;47.348;9.648;2024-01-06T09:50:21;4.60;99.90
18073;DHT22;9161;47.348;9.648;2024-01-06T09:55:25;4.60;99.90
18073;DHT22;9161;47.348;9.648;2024-01-06T10:00:29;4.70;99.90
18073;DHT22;9161;47.348;9.648;2024-01-06T10:05:31;4.90;99.90
18073;DHT22;9161;47.348;9.648;2024-01-06T10:10:33;5.10;99.90
18073;DHT22;9161;47.348;9.648;2024-01-06T10:15:37;5.10;99.90
18073;DHT22;9161;47.348;9.648;2024-01-06T10:20:39;5.10;99.90
18073;DHT22;9161;47.348;9.648;2024-01-06T10:25:42;5.00;99.90
18073;DHT22;9161;47.348;9.648;2024-01-06T10:30:46;4.80;99.90
18073;DHT22;9161;47.348;9.648;2024-01-06T10:35:48;4.70;99.90
18073;DHT22;9161;47.348;9.648;2024-01-06T10:40:57;4.70;99.90
18073;DHT22;9161;47.348;9.648;2024-01-06T10:46:02;4.70;99.90
18073;DHT22;9161;47.348;9.648;2024-01-06T10:51:05;4.90;99.90
18073;DHT22;9161;47.348;9.648;2024-01-06T10:56:09;4.90;99.90
18073;DHT22;9161;47.348;9.648;2024-01-06T11:01:13;4.90;99.90
18073;DHT22;9161;47.348;9.648;2024-01-06T11:06:20;4.90;99.90
18073;DHT22;9161;47.348;9.648;2024-01-06T11:11:23;4.90;99.90
18073;DHT22;9161;47.348;9.648;2024-01-06T11:16:45;4.80;99.90
18073;DHT22;9161;47.348;9.648;2024-01-06T11:21:48;4.80;99.90
18073;DHT22;9161;47.348;9.648;2024-01-06T11:26:52;4.80;99.90
18073;DHT22;9161;47.348;9.648;2024-01-06T11:32:18;4.70;99.90
18073;DHT22;9161;47.348;9.648;2024-01-06T11:37:27;4.70;99.90
18073;DHT22;9161;47.348;9.648;2024-01-06T11:42:37;4.80;99.90
18073;DHT22;9161;47.348;9.648;2024-01-06T11:47:41;4.90;99.90
18073;DHT22;9161;47.348;9.648;2024-01-06T11:52:49;5.00;99.90
18073;DHT22;9161;47.348;9.648;2024-01-06T11:57:52;5.00;99.90
18073;DHT22;9161;47.348;9.648;2024-01-06T12:03:00;4.90;99.90
18073;DHT22;9161;47.348;9.648;2024-01-06T12:08:05;4.90;99.90
18073;DHT22;9161;47.348;9.648;2024-01-06T12:13:12;5.00;99.90
18073;DHT22;9161;47.348;9.648;2024-01-06T12:18:19;5.00;99.90
18073;DHT22;9161;47.348;9.648;2024-01-06T12:23:25;5.10;99.90
18073;DHT22;9161;47.348;9.648;2024-01-06T12:28:28;5.10;99.90
18073;DHT22;9161;47.348;9.648;2024-01-06T12:33:31;5.00;99.90
18073;DHT22;9161;47.348;9.648;2024-01-06T12:38:38;5.00;99.90
18073;DHT22;9161;47.348;9.648;2024-01-06T12:43:40;5.00;99.90
18073;DHT22;9161;47.348;9.648;2024-01-06T12:48:43;5.00;99.90
18073;DHT22;9161;47.348;9.648;2024-01-06T12:53:45;4.90;99.90
18073;DHT22;9161;47.348;9.648;2024-01-06T12:58:48;4.80;99.90
18073;DHT22;9161;47.348;9.648;2024-01-06T13:03:52;4.80;99.90
18073;DHT22;9161;47.348;9.648;2024-01-06T13:08:55;4.80;99.90
18073;DHT22;9161;47.348;9.648;2024-01-06T13:13:57;4.70;99.90
18073;DHT22;9161;47.348;9.648;2024-01-06T13:19:00;4.80;99.90
18073;DHT22;9161;47.348;9.648;2024-01-06T13:24:03;4.70;99.90
18073;DHT22;9161;47.348;9.648;2024-01-06T13:29:06;4.80;99.90
18073;DHT22;9161;47.348;9.648;2024-01-06T13:34:10;4.70;99.90
18073;DHT22;9161;47.348;9.648;2024-01-06T13:39:12;4.70;99.90
18073;DHT22;9161;47.348;9.648;2024-01-06T13:44:21;4.70;99.90
18073;DHT22;9161;47.348;9.648;2024-01-06T13:49:26;4.60;99.90
18073;DHT22;9161;47.348;9.648;2024-01-06T13:54:29;4.70;99.90
18073;DHT22;9161;47.348;9.648;2024-01-06T13:59:31;4.60;99.90
18073;DHT22;9161;47.348;9.648;2024-01-06T14:04:35;4.60;99.90
18073;DHT22;9161;47.348;9.648;2024-01-06T14:09:37;4.60;99.90
18073;DHT22;9161;47.348;9.648;2024-01-06T14:14:39;4.60;99.90
18073;DHT22;9161;47.348;9.648;2024-01-06T14:19:43;4.60;99.90
18073;DHT22;9161;47.348;9.648;2024-01-06T14:24:48;4.60;99.90
18073;DHT22;9161;47.348;9.648;2024-01-06T14:29:51;4.60;99.90
18073;DHT22;9161;47.348;9.648;2024-01-06T14:34:57;4.50;99.90
18073;DHT22;9161;47.348;9.648;2024-01-06T14:40:00;4.50;99.90
18073;DHT22;9161;47.348;9.648;2024-01-06T14:45:07;4.40;99.90
18073;DHT22;9161;47.348;9.648;2024-01-06T14:50:12;4.40;99.90
18073;DHT22;9161;47.348;9.648;2024-01-06T14:55:14;4.40;99.90
18073;DHT22;9161;47.348;9.648;2024-01-06T15:00:17;4.30;99.90
18073;DHT22;9161;47.348;9.648;2024-01-06T15:05:21;4.30;99.90
18073;DHT22;9161;47.348;9.648;2024-01-06T15:10:24;4.20;99.90
18073;DHT22;9161;47.348;9.648;2024-01-06T15:15:26;4.20;99.90
18073;DHT22;9161;47.348;9.648;2024-01-06T15:20:30;4.20;99.90
18073;DHT22;9161;47.348;9.648;2024-01-06T15:25:33;4.10;99.90
18073;DHT22;9161;47.348;9.648;2024-01-06T15:30:35;4.10;99.90
18073;DHT22;9161;47.348;9.648;2024-01-06T15:35:38;4.00;99.90
18073;DHT22;9161;47.348;9.648;2024-01-06T15:40:40;5.10;99.90
18073;DHT22;9161;47.348;9.648;2024-01-06T15:45:43;4.60;99.90
18073;DHT22;9161;47.348;9.648;2024-01-06T15:50:46;4.30;99.90
18073;DHT22;9161;47.348;9.648;2024-01-06T15:55:49;4.20;99.90
18073;DHT22;9161;47.348;9.648;2024-01-06T16:00:51;4.00;99.90
18073;DHT22;9161;47.348;9.648;2024-01-06T16:05:56;4.00;99.90
18073;DHT22;9161;47.348;9.648;2024-01-06T16:10:59;4.00;99.90
18073;DHT22;9161;47.348;9.648;2024-01-06T16:16:02;3.90;99.90
18073;DHT22;9161;47.348;9.648;2024-01-06T16:21:06;3.90;99.90
18073;DHT22;9161;47.348;9.648;2024-01-06T16:26:08;3.90;99.90
18073;DHT22;9161;47.348;9.648;2024-01-06T16:31:10;3.90;99.90
18073;DHT22;9161;47.348;9.648;2024-01-06T16:36:14;3.80;99.90
18073;DHT22;9161;47.348;9.648;2024-01-06T16:41:16;3.90;99.90
18073;DHT22;9161;47.348;9.648;2024-01-06T16:46:19;3.90;99.90
18073;DHT22;9161;47.348;9.648;2024-01-06T16:51:22;3.90;99.90
18073;DHT22;9161;47.348;9.648;2024-01-06T16:56:25;3.80;99.90
18073;DHT22;9161;47.348;9.648;2024-01-06T17:01:26;3.80;99.90
18073;DHT22;9161;47.348;9.648;2024-01-06T17:06:31;3.80;99.90
18073;DHT22;9161;47.348;9.648;2024-01-06T17:11:33;3.70;99.90
18073;DHT22;9161;47.348;9.648;2024-01-06T17:16:35;3.70;99.90
18073;DHT22;9161;47.348;9.648;2024-01-06T17:21:39;3.60;99.90
18073;DHT22;9161;47.348;9.648;2024-01-06T17:26:42;3.70;99.90
18073;DHT22;9161;47.348;9.648;2024-01-06T17:31:44;3.60;99.90
18073;DHT22;9161;47.348;9.648;2024-01-06T17:36:48;3.60;99.90
18073;DHT22;9161;47.348;9.648;2024-01-06T17:41:50;3.60;99.90
18073;DHT22;9161;47.348;9.648;2024-01-06T17:47:00;3.60;99.90
18073;DHT22;9161;47.348;9.648;2024-01-06T17:52:04;3.60;99.90
18073;DHT22;9161;47.348;9.648;2024-01-06T17:57:08;3.60;99.90
18073;DHT22;9161;47.348;9.648;2024-01-06T18:02:17;3.60;99.90
18073;DHT22;9161;47.348;9.648;2024-01-06T18:07:21;3.60;99.90
18073;DHT22;9161;47.348;9.648;2024-01-06T18:12:25;3.60;99.90
18073;DHT22;9161;47.348;9.648;2024-01-06T18:17:28;3.50;99.90
18073;DHT22;9161;47.348;9.648;2024-01-06T18:22:32;3.50;99.90
18073;DHT22;9161;47.348;9.648;2024-01-06T18:27:34;3.60;99.90
18073;DHT22;9161;47.348;9.648;2024-01-06T18:32:37;3.60;99.90
18073;DHT22;9161;47.348;9.648;2024-01-06T18:37:41;3.50;99.90
18073;DHT22;9161;47.348;9.648;2024-01-06T18:42:43;3.50;99.90
18073;DHT22;9161;47.348;9.648;2024-01-06T18:47:46;3.60;99.90
18073;DHT22;9161;47.348;9.648;2024-01-06T18:52:50;3.60;99.90
18073;DHT22;9161;47.348;9.648;2024-01-06T18:57:53;3.60;99.90
18073;DHT22;9161;47.348;9.648;2024-01-06T19:03:15;3.50;99.90
18073;DHT22;9161;47.348;9.648;2024-01-06T19:08:27;3.50;99.90
18073;DHT22;9161;47.348;9.648;2024-01-06T19:13:29;3.50;99.90
18073;DHT22;9161;47.348;9.648;2024-01-06T19:18:31;3.50;99.90
18073;DHT22;9161;47.348;9.648;2024-01-06T19:23:35;3.50;99.90
18073;DHT22;9161;47.348;9.648;2024-01-06T19:28:37;3.50;99.90
18073;DHT22;9161;47.348;9.648;2024-01-06T19:33:40;3.50;99.90
18073;DHT22;9161;47.348;9.648;2024-01-06T19:38:45;3.40;99.90
18073;DHT22;9161;47.348;9.648;2024-01-06T19:43:47;3.40;99.90
18073;DHT22;9161;47.348;9.648;2024-01-06T19:48:49;3.30;99.90
18073;DHT22;9161;47.348;9.648;2024-01-06T19:53:53;3.30;99.90
18073;DHT22;9161;47.348;9.648;2024-01-06T19:58:55;3.20;99.90
18073;DHT22;9161;47.348;9.648;2024-01-06T20:03:57;3.20;99.90
18073;DHT22;9161;47.348;9.648;2024-01-06T20:09:30;3.10;99.90
18073;DHT22;9161;47.348;9.648;2024-01-06T20:15:39;3.20;99.90
18073;DHT22;9161;47.348;9.648;2024-01-06T20:20:53;3.00;99.90
18073;DHT22;9161;47.348;9.648;2024-01-06T20:26:22;3.00;99.90
18073;DHT22;9161;47.348;9.648;2024-01-06T20:31:45;2.90;99.90
18073;DHT22;9161;47.348;9.648;2024-01-06T20:36:55;2.90;99.90
18073;DHT22;9161;47.348;9.648;2024-01-06T20:42:07;3.00;99.90
18073;DHT22;9161;47.348;9.648;2024-01-06T20:47:10;3.00;99.90
18073;DHT22;9161;47.348;9.648;2024-01-06T20:52:13;3.00;99.90
18073;DHT22;9161;47.348;9.648;2024-01-06T20:57:18;3.00;99.90
18073;DHT22;9161;47.348;9.648;2024-01-06T21:02:21;3.00;99.90
18073;DHT22;9161;47.348;9.648;2024-01-06T21:07:23;3.00;99.90
18073;DHT22;9161;47.348;9.648;2024-01-06T21:12:26;3.00;99.90
18073;DHT22;9161;47.348;9.648;2024-01-06T21:17:29;3.00;99.90
18073;DHT22;9161;47.348;9.648;2024-01-06T21:22:33;3.00;99.90
18073;DHT22;9161;47.348;9.648;2024-01-06T21:27:37;3.00;99.90
18073;DHT22;9161;47.348;9.648;2024-01-06T21:32:40;3.00;99.90
18073;DHT22;9161;47.348;9.648;2024-01-06T21:37:42;3.00;99.90
18073;DHT22;9161;47.348;9.648;2024-01-06T21:42:47;3.00;99.90
18073;DHT22;9161;47.348;9.648;2024-01-06T21:47:49;3.00;99.90
18073;DHT22;9161;47.348;9.648;2024-01-06T21:52:54;3.20;99.90
18073;DHT22;9161;47.348;9.648;2024-01-06T21:57:58;3.10;99.90
18073;DHT22;9161;47.348;9.648;2024-01-06T22:03:01;2.90;99.90
18073;DHT22;9161;47.348;9.648;2024-01-06T22:08:07;2.90;99.90
18073;DHT22;9161;47.348;9.648;2024-01-06T22:13:11;2.80;99.90
18073;DHT22;9161;47.348;9.648;2024-01-06T22:18:15;2.80;99.90
18073;DHT22;9161;47.348;9.648;2024-01-06T22:23:17;2.80;99.90
18073;DHT22;9161;47.348;9.648;2024-01-06T22:28:21;2.70;99.90
18073;DHT22;9161;47.348;9.648;2024-01-06T22:33:23;2.60;99.90
18073;DHT22;9161;47.348;9.648;2024-01-06T22:38:27;2.60;99.90
18073;DHT22;9161;47.348;9.648;2024-01-06T22:43:44;2.50;99.90
18073;DHT22;9161;47.348;9.648;2024-01-06T22:48:46;2.50;99.90
18073;DHT22;9161;47.348;9.648;2024-01-06T22:53:49;2.40;99.90
18073;DHT22;9161;47.348;9.648;2024-01-06T22:58:53;2.40;99.90
18073;DHT22;9161;47.348;9.648;2024-01-06T23:03:55;2.40;99.90
18073;DHT22;9161;47.348;9.648;2024-01-06T23:08:58;2.40;99.90
18073;DHT22;9161;47.348;9.648;2024-01-06T23:14:02;2.40;99.90
18073;DHT22;9161;47.348;9.648;2024-01-06T23:19:05;2.30;99.90
18073;DHT22;9161;47.348;9.648;2024-01-06T23:24:08;2.30;99.90
18073;DHT22;9161;47.348;9.648;2024-01-06T23:29:11;2.20;99.90
18073;DHT22;9161;47.348;9.648;2024-01-06T23:34:14;2.20;99.90
18073;DHT22;9161;47.348;9.648;2024-01-06T23:39:33;2.20;99.90
18073;DHT22;9161;47.348;9.648;2024-01-06T23:44:37;2.10;99.90
18073;DHT22;9161;47.348;9.648;2024-01-06T23:49:40;2.10;99.90
18073;DHT22;9161;47.348;9.648;2024-01-06T23:54:42;2.10;99.90
18073;DHT22;9161;47.348;9.648;2024-01-06T23:59:46;2.10;99.90
